Time;durP1;ratioP1;P1;durP2;ratioP2;P2;SDS_P1;SDS_P2;PMS_P1;PMS_P2;Temp;Humidity;BMP_temperature;BMP_pressure;BME280_temperature;BME280_humidity;BME280_pressure;Samples;Min_cycle;Max_cycle;Signal;HPM_P1;HPM_P2
2024/03/12 00:04:43;;;;;;;17.10;15.15;;;10.20;99.90;;;;;;10460227;28;20308;-67
2024/03/12 00:09:46;;;;;;;16.60;14.75;;;10.20;99.90;;;;;;10461726;28;20210;-67
2024/03/12 00:14:51;;;;;;;20.30;16.80;;;10.20;99.90;;;;;;10461477;28;20689;-67
2024/03/12 00:19:55;;;;;;;21.77;17.30;;;10.20;99.90;;;;;;10461360;28;20214;-66
2024/03/12 00:24:59;;;;;;;22.10;17.83;;;10.20;99.90;;;;;;10463434;28;20308;-62
2024/03/12 00:30:05;;;;;;;23.88;19.08;;;10.10;99.90;;;;;;10461791;28;20210;-62
2024/03/12 00:35:10;;;;;;;22.45;19.73;;;10.10;99.90;;;;;;10461377;28;20247;-62
2024/03/12 00:40:16;;;;;;;22.30;19.83;;;10.10;99.90;;;;;;10461573;28;20210;-62
2024/03/12 00:45:25;;;;;;;24.35;20.67;;;10.10;99.90;;;;;;10459908;28;21546;-63
2024/03/12 00:50:29;;;;;;;24.52;20.17;;;10.10;99.90;;;;;;10461541;28;20207;-63
2024/03/12 00:55:33;;;;;;;24.98;19.45;;;10.10;99.90;;;;;;10461644;28;20286;-63
2024/03/12 01:00:39;;;;;;;25.02;20.17;;;10.10;99.90;;;;;;10460550;28;20210;-62
2024/03/12 01:05:43;;;;;;;27.20;20.65;;;10.10;99.90;;;;;;10461886;28;20235;-64
2024/03/12 01:10:47;;;;;;;26.10;20.73;;;10.00;99.90;;;;;;10474170;28;20194;-63
2024/03/12 01:15:53;;;;;;;27.02;20.95;;;10.00;99.90;;;;;;10471317;28;20608;-63
2024/03/12 01:20:58;;;;;;;30.70;22.73;;;10.00;99.90;;;;;;10465665;28;20901;-63
2024/03/12 01:26:03;;;;;;;32.78;23.70;;;10.00;99.90;;;;;;10467547;28;20759;-62
2024/03/12 01:36:34;;;;;;;35.03;24.40;;;10.00;99.90;;;;;;10317535;28;21447;-65
2024/03/12 01:41:41;;;;;;;33.15;24.45;;;10.00;99.90;;;;;;10318911;28;20229;-66
2024/03/12 01:46:45;;;;;;;36.67;25.35;;;9.90;99.90;;;;;;10300428;28;20302;-66
2024/03/12 01:51:50;;;;;;;39.60;26.70;;;9.90;99.90;;;;;;10300783;28;20252;-66
2024/03/12 01:56:54;;;;;;;40.67;27.70;;;9.90;99.90;;;;;;10299317;28;21321;-66
2024/03/12 02:02:00;;;;;;;39.42;27.60;;;9.90;99.90;;;;;;10297020;28;20290;-66
2024/03/12 02:07:06;;;;;;;40.70;27.90;;;9.90;99.90;;;;;;10301600;28;20224;-66
2024/03/12 02:12:09;;;;;;;43.88;30.52;;;9.90;99.90;;;;;;10296575;28;20233;-66
2024/03/12 02:17:13;;;;;;;53.05;36.75;;;9.90;99.90;;;;;;10298723;28;20235;-66
2024/03/12 02:22:18;;;;;;;56.40;39.33;;;9.80;99.90;;;;;;10297280;28;20286;-66
2024/03/12 02:27:23;;;;;;;57.17;39.88;;;9.80;99.90;;;;;;10296105;28;20237;-67
2024/03/12 02:32:27;;;;;;;60.90;40.40;;;9.80;99.90;;;;;;10299944;28;20585;-67
2024/03/12 02:37:31;;;;;;;58.63;40.80;;;9.80;99.90;;;;;;10296082;28;21571;-66
2024/03/12 02:42:37;;;;;;;65.68;41.15;;;9.80;99.90;;;;;;10301365;28;20778;-65
2024/03/12 02:47:40;;;;;;;63.28;40.97;;;9.70;99.90;;;;;;10297649;28;20271;-66
2024/03/12 02:52:44;;;;;;;54.70;38.63;;;9.70;99.90;;;;;;10297250;28;20286;-65
2024/03/12 02:57:50;;;;;;;51.13;36.95;;;9.70;99.90;;;;;;10296132;28;20213;-65
2024/03/12 03:02:54;;;;;;;56.08;38.72;;;9.60;99.90;;;;;;10296613;28;20232;-65
2024/03/12 03:07:58;;;;;;;59.83;37.90;;;9.60;99.90;;;;;;10296227;28;20333;-65
2024/03/12 03:13:03;;;;;;;54.22;37.05;;;9.60;99.90;;;;;;10293960;28;20269;-65
2024/03/12 03:18:07;;;;;;;56.17;37.53;;;9.60;99.90;;;;;;10295503;28;20295;-66
2024/03/12 03:23:11;;;;;;;61.30;40.13;;;9.60;99.90;;;;;;10295170;28;20241;-66
2024/03/12 03:28:16;;;;;;;63.87;40.30;;;9.60;99.90;;;;;;10294400;28;20337;-66
2024/03/12 03:33:22;;;;;;;64.43;38.73;;;9.60;99.90;;;;;;10294127;28;20286;-66
2024/03/12 03:38:28;;;;;;;66.23;38.53;;;9.60;99.90;;;;;;10294543;28;20231;-66
2024/03/12 03:43:33;;;;;;;58.47;37.30;;;9.60;99.90;;;;;;10294260;28;20310;-66
2024/03/12 03:48:37;;;;;;;54.00;36.77;;;9.50;99.90;;;;;;10295278;28;20213;-66
2024/03/12 03:53:41;;;;;;;55.23;34.90;;;9.50;99.90;;;;;;10294984;28;21335;-66
2024/03/12 03:58:46;;;;;;;53.45;35.28;;;9.50;99.90;;;;;;10293665;28;20228;-65
2024/03/12 04:03:51;;;;;;;52.67;34.57;;;9.50;99.90;;;;;;10293034;28;20229;-65
2024/03/12 04:08:55;;;;;;;49.95;33.28;;;9.50;99.90;;;;;;10293316;28;20213;-66
2024/03/12 04:14:00;;;;;;;48.10;31.93;;;9.50;99.90;;;;;;10292383;28;20220;-66
2024/03/12 04:19:04;;;;;;;50.05;33.70;;;9.50;99.90;;;;;;10292963;28;20229;-66
2024/03/12 04:24:10;;;;;;;50.23;33.00;;;9.50;99.90;;;;;;10293272;28;20602;-66
2024/03/12 04:29:16;;;;;;;48.17;30.47;;;9.50;99.90;;;;;;10293942;28;20205;-67
2024/03/12 04:34:20;;;;;;;43.97;30.47;;;9.50;99.90;;;;;;10295221;28;20262;-66
2024/03/12 04:39:31;;;;;;;38.33;27.20;;;9.50;99.90;;;;;;10295901;28;20210;-67
2024/03/12 04:44:37;;;;;;;34.87;26.10;;;9.50;99.90;;;;;;10297916;28;20723;-67
2024/03/12 04:49:40;;;;;;;39.10;26.83;;;9.50;99.90;;;;;;10302539;28;20209;-66
2024/03/12 04:54:44;;;;;;;33.40;25.08;;;9.50;99.90;;;;;;10302422;28;20220;-67
2024/03/12 04:59:49;;;;;;;31.93;24.33;;;9.50;99.90;;;;;;10301833;28;20256;-66
2024/03/12 05:04:53;;;;;;;29.77;23.67;;;9.50;99.90;;;;;;10301456;28;20232;-66
2024/03/12 05:09:59;;;;;;;28.63;24.13;;;9.50;99.90;;;;;;10305700;28;20208;-66
2024/03/12 05:15:06;;;;;;;29.63;22.60;;;9.40;99.90;;;;;;10300552;28;21514;-66
2024/03/12 05:20:10;;;;;;;26.43;22.57;;;9.40;99.90;;;;;;10300061;28;20754;-66
2024/03/12 05:25:22;;;;;;;28.35;22.42;;;9.40;99.90;;;;;;10301095;28;20233;-65
2024/03/12 05:30:28;;;;;;;28.43;23.40;;;9.40;99.90;;;;;;10300133;28;20232;-64
2024/03/12 05:35:33;;;;;;;41.80;30.63;;;9.30;99.90;;;;;;10300161;28;21340;-64
2024/03/12 05:40:57;;;;;;;26.20;22.90;;;9.40;99.90;;;;;;10301344;28;20264;-65
2024/03/12 05:51:24;;;;;;;28.53;23.40;;;9.30;99.90;;;;;;10299656;28;20222;-64
2024/03/12 05:56:29;;;;;;;28.80;24.67;;;9.30;99.90;;;;;;10298319;28;20450;-65
2024/03/12 06:01:34;;;;;;;27.58;22.08;;;9.30;99.90;;;;;;10295883;28;20277;-64
2024/03/12 06:06:38;;;;;;;24.73;21.17;;;9.30;99.90;;;;;;10297469;28;20260;-64
2024/03/12 06:11:41;;;;;;;23.00;20.37;;;9.30;99.90;;;;;;10299890;28;20229;-65
2024/03/12 06:16:47;;;;;;;24.47;20.70;;;9.30;99.90;;;;;;10299852;28;20275;-65
2024/03/12 06:21:51;;;;;;;24.87;20.43;;;9.30;99.90;;;;;;10300177;28;20252;-64
2024/03/12 06:26:54;;;;;;;22.90;18.90;;;9.40;99.90;;;;;;10298951;28;20769;-64
2024/03/12 06:32:00;;;;;;;23.52;19.60;;;9.40;99.90;;;;;;10301959;28;20323;-64
2024/03/12 06:37:04;;;;;;;21.50;18.42;;;9.40;99.90;;;;;;10300075;28;20936;-65
2024/03/12 06:42:12;;;;;;;21.80;19.07;;;9.40;99.90;;;;;;10301228;28;21495;-64
2024/03/12 06:47:17;;;;;;;19.27;17.07;;;9.40;99.90;;;;;;10297993;28;20233;-64
2024/03/12 06:52:22;;;;;;;21.90;17.40;;;9.40;99.90;;;;;;10297602;28;20282;-64
2024/03/12 06:57:25;;;;;;;22.25;17.98;;;9.40;99.90;;;;;;10297152;28;20258;-65
2024/03/12 07:02:38;;;;;;;18.92;16.85;;;9.30;99.90;;;;;;10296921;28;20243;-65
2024/03/12 07:07:43;;;;;;;23.05;18.48;;;9.30;99.90;;;;;;10296049;28;20298;-65
2024/03/12 07:12:47;;;;;;;21.80;17.70;;;9.30;99.90;;;;;;10297271;28;21359;-64
2024/03/12 07:17:52;;;;;;;22.67;18.63;;;9.30;99.90;;;;;;10297263;28;20210;-64
2024/03/12 07:22:58;;;;;;;25.45;19.27;;;9.30;99.90;;;;;;10298162;28;20230;-65
2024/03/12 07:28:05;;;;;;;24.98;19.48;;;9.30;99.90;;;;;;10297284;28;21454;-66
2024/03/12 07:33:12;;;;;;;28.13;20.47;;;9.20;99.90;;;;;;10318340;22;20250;-61
2024/03/12 07:38:16;;;;;;;26.07;19.40;;;9.20;99.90;;;;;;10372701;28;20299;-62
2024/03/12 07:43:20;;;;;;;22.50;19.47;;;9.10;99.90;;;;;;10377230;28;20228;-62
2024/03/12 07:48:25;;;;;;;22.67;19.45;;;9.10;99.90;;;;;;10386079;28;20223;-62
2024/03/12 07:53:29;;;;;;;25.42;20.35;;;9.10;99.90;;;;;;10388416;28;20280;-62
2024/03/12 07:58:35;;;;;;;28.47;21.30;;;9.00;99.90;;;;;;10399060;28;20204;-61
2024/03/12 08:03:40;;;;;;;25.40;19.20;;;9.00;99.90;;;;;;10401440;28;20231;-61
2024/03/12 08:08:43;;;;;;;21.95;18.00;;;9.00;99.90;;;;;;10394658;28;20227;-59
2024/03/12 08:13:48;;;;;;;21.60;17.47;;;9.00;99.90;;;;;;10388125;28;21787;-61
2024/03/12 08:18:53;;;;;;;19.67;15.95;;;9.00;99.90;;;;;;10387444;28;20271;-61
2024/03/12 08:23:58;;;;;;;21.67;18.00;;;9.00;99.90;;;;;;10394321;28;20227;-61
2024/03/12 08:29:02;;;;;;;24.98;18.77;;;9.10;99.90;;;;;;10390971;28;20219;-63
2024/03/12 08:34:09;;;;;;;28.48;20.77;;;9.20;99.90;;;;;;10391662;28;20236;-62
2024/03/12 08:39:13;;;;;;;32.00;21.25;;;9.10;99.90;;;;;;10387757;28;20203;-63
2024/03/12 08:44:17;;;;;;;29.70;21.43;;;9.10;99.90;;;;;;10390364;28;20228;-62
2024/03/12 08:49:22;;;;;;;29.00;20.65;;;9.20;99.90;;;;;;10386195;28;20231;-62
2024/03/12 08:54:25;;;;;;;29.67;21.88;;;9.20;99.90;;;;;;10392851;28;20756;-64
2024/03/12 08:59:30;;;;;;;31.52;22.50;;;9.30;99.90;;;;;;10401704;28;20721;-63
2024/03/12 09:04:35;;;;;;;32.73;22.07;;;9.30;99.90;;;;;;10384141;28;20284;-62
2024/03/12 09:09:39;;;;;;;33.40;21.52;;;9.30;99.90;;;;;;10384869;28;20769;-62
2024/03/12 09:14:43;;;;;;;31.67;21.23;;;9.30;99.90;;;;;;10383027;28;20223;-62
2024/03/12 09:19:48;;;;;;;33.30;21.90;;;9.20;99.90;;;;;;10384421;28;20262;-62
2024/03/12 09:24:53;;;;;;;29.93;20.23;;;9.20;99.90;;;;;;10382328;28;20223;-62
2024/03/12 09:29:57;;;;;;;29.77;19.43;;;9.20;99.90;;;;;;10391329;28;20257;-62
2024/03/12 09:35:03;;;;;;;25.85;18.73;;;9.20;99.90;;;;;;10392216;28;20730;-63
2024/03/12 09:40:07;;;;;;;26.73;18.10;;;9.20;99.90;;;;;;10392261;28;20712;-60
2024/03/12 09:45:12;;;;;;;23.27;16.98;;;9.20;99.90;;;;;;10408754;28;20228;-63
2024/03/12 09:50:19;;;;;;;22.63;15.90;;;9.10;99.90;;;;;;10402276;28;20631;-64
2024/03/12 09:55:25;;;;;;;23.70;17.10;;;9.10;99.90;;;;;;10406137;28;20232;-64
2024/03/12 10:00:29;;;;;;;26.27;18.40;;;9.10;99.90;;;;;;10399858;28;20264;-61
2024/03/12 10:05:34;;;;;;;26.15;17.92;;;9.10;99.90;;;;;;10388245;28;20301;-61
2024/03/12 10:10:38;;;;;;;30.00;18.40;;;9.20;99.90;;;;;;10384401;28;20211;-61
2024/03/12 10:15:56;;;;;;;27.95;18.63;;;9.20;99.90;;;;;;10382818;28;20306;-62
2024/03/12 10:21:02;;;;;;;29.45;20.13;;;9.20;99.90;;;;;;10388624;28;20212;-62
2024/03/12 10:26:12;;;;;;;28.65;21.05;;;9.30;99.90;;;;;;10382585;28;20800;-63
2024/03/12 10:31:19;;;;;;;30.88;21.65;;;9.40;99.90;;;;;;10388578;28;20237;-62
2024/03/12 10:36:31;;;;;;;27.30;18.60;;;9.40;99.90;;;;;;10391710;28;20231;-62
2024/03/12 10:41:36;;;;;;;28.33;19.42;;;9.40;99.90;;;;;;10392276;28;20204;-62
2024/03/12 10:46:42;;;;;;;27.20;19.13;;;9.40;99.90;;;;;;10389003;28;20747;-61
2024/03/12 10:51:48;;;;;;;25.55;18.85;;;9.50;99.90;;;;;;10391733;28;20760;-61
2024/03/12 10:56:52;;;;;;;28.05;19.98;;;9.50;99.90;;;;;;10390907;28;20223;-62
2024/03/12 11:01:58;;;;;;;25.77;20.00;;;9.60;99.90;;;;;;10394329;28;20688;-62
2024/03/12 11:07:08;;;;;;;27.98;21.25;;;9.70;99.90;;;;;;10388400;28;20220;-63
2024/03/12 11:12:11;;;;;;;27.73;21.67;;;9.70;99.90;;;;;;10384125;28;20203;-61
2024/03/12 11:17:31;;;;;;;31.00;22.33;;;9.70;99.90;;;;;;10385249;28;20223;-61
2024/03/12 11:22:42;;;;;;;33.58;25.38;;;9.70;99.90;;;;;;10379716;28;20208;-63
2024/03/12 11:27:46;;;;;;;27.75;21.65;;;9.70;99.90;;;;;;10380008;28;21131;-63
2024/03/12 11:32:52;;;;;;;29.92;21.63;;;9.80;99.90;;;;;;10377390;28;20289;-61
2024/03/12 11:38:06;;;;;;;31.75;22.15;;;9.70;99.90;;;;;;10380155;28;20234;-63
2024/03/12 11:43:34;;;;;;;33.42;23.55;;;9.70;99.90;;;;;;10392041;28;20228;-62
2024/03/12 11:48:40;;;;;;;35.50;22.92;;;9.70;99.90;;;;;;10391250;28;20284;-61
2024/03/12 11:53:47;;;;;;;29.90;21.40;;;9.70;99.90;;;;;;10386454;28;20228;-62
2024/03/12 11:58:52;;;;;;;30.98;21.65;;;9.70;99.90;;;;;;10385662;28;20200;-60
2024/03/12 12:04:07;;;;;;;27.10;20.70;;;9.70;99.90;;;;;;10386380;28;20250;-60
2024/03/12 12:09:14;;;;;;;32.13;22.13;;;9.60;99.90;;;;;;10383834;28;20224;-61
2024/03/12 12:14:20;;;;;;;29.53;21.47;;;9.60;99.90;;;;;;10375199;28;20285;-65
2024/03/12 12:19:25;;;;;;;29.42;20.45;;;9.70;99.90;;;;;;10375561;28;20388;-61
2024/03/12 12:24:43;;;;;;;27.35;21.58;;;9.80;99.90;;;;;;10380098;28;20320;-62
2024/03/12 12:29:47;;;;;;;28.20;21.80;;;9.80;99.90;;;;;;10380320;28;20635;-62
2024/03/12 12:34:52;;;;;;;30.07;22.10;;;9.90;99.90;;;;;;10378572;28;20235;-61
2024/03/12 12:39:58;;;;;;;33.53;23.38;;;10.00;99.90;;;;;;10374729;28;20208;-62
2024/03/12 12:45:05;;;;;;;33.85;25.08;;;10.00;99.90;;;;;;10380767;28;21267;-61
2024/03/12 12:50:11;;;;;;;34.60;24.57;;;10.10;99.90;;;;;;10382155;28;20833;-61
2024/03/12 12:55:17;;;;;;;36.42;24.88;;;10.00;99.90;;;;;;10389337;28;20596;-61
2024/03/12 13:00:23;;;;;;;32.50;24.17;;;10.00;99.90;;;;;;10390416;28;20233;-62
2024/03/12 13:05:26;;;;;;;33.97;25.08;;;10.10;99.90;;;;;;10390468;28;20245;-61
2024/03/12 13:10:31;;;;;;;31.35;24.15;;;10.30;99.90;;;;;;10394973;28;20869;-60
2024/03/12 13:15:36;;;;;;;32.67;22.95;;;10.40;99.90;;;;;;10391546;28;20280;-63
2024/03/12 13:20:39;;;;;;;30.75;22.15;;;10.50;99.90;;;;;;10392098;28;20798;-61
2024/03/12 13:25:45;;;;;;;31.80;23.17;;;10.60;99.90;;;;;;10387222;28;20224;-62
2024/03/12 13:30:51;;;;;;;32.95;23.55;;;10.70;99.90;;;;;;10383212;28;21441;-62
2024/03/12 13:35:58;;;;;;;33.15;22.85;;;10.80;99.90;;;;;;10393813;22;20258;-68
2024/03/12 13:41:04;;;;;;;31.67;23.15;;;10.80;99.90;;;;;;10363782;28;20325;-68
2024/03/12 13:46:08;;;;;;;33.08;23.92;;;10.80;99.90;;;;;;10367599;28;20228;-66
2024/03/12 13:51:11;;;;;;;32.55;23.80;;;10.80;99.90;;;;;;10366631;28;20797;-66
2024/03/12 13:56:16;;;;;;;31.58;24.10;;;10.70;99.90;;;;;;10364594;28;20236;-65
2024/03/12 14:01:20;;;;;;;34.92;24.00;;;10.70;99.90;;;;;;10364002;28;20212;-64
2024/03/12 14:06:24;;;;;;;33.85;24.55;;;10.70;99.90;;;;;;10365925;28;20763;-65
2024/03/12 14:11:30;;;;;;;33.47;25.35;;;10.80;99.90;;;;;;10364210;28;20303;-64
2024/03/12 14:16:34;;;;;;;35.80;26.38;;;10.80;99.90;;;;;;10360433;28;20269;-64
2024/03/12 14:21:37;;;;;;;35.00;24.90;;;10.70;99.70;;;;;;10356483;28;20205;-64
2024/03/12 14:26:43;;;;;;;32.95;24.40;;;10.70;99.90;;;;;;10358226;28;20300;-63
2024/03/12 14:31:47;;;;;;;36.88;24.95;;;10.80;99.90;;;;;;10362007;28;20228;-63
2024/03/12 14:36:51;;;;;;;40.00;26.52;;;10.90;99.90;;;;;;10369667;28;20239;-63
2024/03/12 14:41:58;;;;;;;34.22;24.70;;;11.00;99.80;;;;;;10368239;28;20293;-66
2024/03/12 14:47:02;;;;;;;34.00;23.90;;;11.10;99.90;;;;;;10365507;28;20236;-66
2024/03/12 14:52:06;;;;;;;36.38;26.00;;;11.20;99.50;;;;;;10368908;28;20231;-63
2024/03/12 14:57:12;;;;;;;32.80;23.85;;;11.20;99.20;;;;;;10367397;28;20269;-64
2024/03/12 15:02:16;;;;;;;35.92;24.05;;;11.20;99.20;;;;;;10375929;28;20230;-64
2024/03/12 15:07:20;;;;;;;34.70;23.50;;;11.10;99.10;;;;;;10367121;28;20269;-63
2024/03/12 15:12:25;;;;;;;35.35;24.27;;;11.10;98.90;;;;;;10372048;28;20227;-63
2024/03/12 15:17:33;;;;;;;31.92;23.73;;;11.00;98.90;;;;;;10369864;28;20236;-64
2024/03/12 15:22:38;;;;;;;30.25;22.85;;;11.00;98.90;;;;;;10368258;28;20224;-64
2024/03/12 15:27:43;;;;;;;32.25;23.05;;;10.90;97.70;;;;;;10365997;28;20228;-67
2024/03/12 15:32:47;;;;;;;34.10;22.88;;;10.90;98.30;;;;;;10375343;28;20223;-65
2024/03/12 15:37:52;;;;;;;33.90;25.38;;;10.90;98.60;;;;;;10368046;28;20292;-66
2024/03/12 15:42:59;;;;;;;33.78;23.85;;;10.90;98.80;;;;;;10373525;28;20821;-66
2024/03/12 15:48:07;;;;;;;33.40;23.90;;;10.90;98.10;;;;;;10370785;28;21764;-66
2024/03/12 15:53:12;;;;;;;33.58;23.02;;;10.90;98.40;;;;;;10370357;28;20228;-66
2024/03/12 15:58:17;;;;;;;35.47;23.42;;;10.90;98.20;;;;;;10368787;28;20281;-66
2024/03/12 16:03:23;;;;;;;35.58;22.50;;;10.80;98.50;;;;;;10369129;28;20285;-65
2024/03/12 16:08:29;;;;;;;32.17;21.60;;;10.90;98.40;;;;;;10366307;28;20309;-66
2024/03/12 16:13:34;;;;;;;35.83;23.75;;;10.90;98.50;;;;;;10360132;28;20223;-65
2024/03/12 16:18:39;;;;;;;31.95;22.25;;;10.90;98.40;;;;;;10369984;28;20200;-65
2024/03/12 16:23:42;;;;;;;33.40;23.40;;;10.90;98.40;;;;;;10333898;28;20297;-67
2024/03/12 16:28:48;;;;;;;35.03;23.88;;;10.90;98.50;;;;;;10367243;28;20228;-66
2024/03/12 16:33:52;;;;;;;36.47;24.00;;;10.90;98.50;;;;;;10366647;28;20817;-67
2024/03/12 16:38:56;;;;;;;36.97;24.17;;;10.90;98.40;;;;;;10364597;28;20834;-67
2024/03/12 16:44:02;;;;;;;34.50;24.00;;;10.80;98.40;;;;;;10363681;28;20224;-67
2024/03/12 16:49:06;;;;;;;35.53;23.83;;;10.80;98.30;;;;;;10365515;28;20216;-68
2024/03/12 16:54:11;;;;;;;34.08;24.23;;;10.80;98.20;;;;;;10373985;28;20223;-68
2024/03/12 16:59:17;;;;;;;35.80;23.58;;;10.70;98.30;;;;;;10373538;28;20204;-67
2024/03/12 17:04:21;;;;;;;37.05;24.38;;;10.70;98.40;;;;;;10372523;28;20254;-67
2024/03/12 17:09:25;;;;;;;37.45;26.08;;;10.70;98.70;;;;;;10376451;28;20245;-66
2024/03/12 17:14:31;;;;;;;35.78;24.45;;;10.70;98.40;;;;;;10371934;28;20393;-66
2024/03/12 17:19:39;;;;;;;40.13;24.73;;;10.70;98.20;;;;;;10370979;28;20205;-67
2024/03/12 17:24:43;;;;;;;41.15;27.08;;;10.60;98.30;;;;;;10367432;28;20224;-67
2024/03/12 17:29:52;;;;;;;46.20;29.30;;;10.60;98.50;;;;;;10370367;28;20224;-67
2024/03/12 17:34:57;;;;;;;46.22;27.75;;;10.60;98.20;;;;;;10370937;28;20240;-66
2024/03/12 17:40:12;;;;;;;38.77;26.27;;;10.60;98.60;;;;;;10373178;28;20204;-66
2024/03/12 17:45:18;;;;;;;44.08;27.23;;;10.60;98.10;;;;;;10370681;28;20300;-67
2024/03/12 17:50:23;;;;;;;39.95;25.13;;;10.60;98.20;;;;;;10369799;28;21404;-66
2024/03/12 17:55:28;;;;;;;37.38;25.92;;;10.50;98.10;;;;;;10407878;28;20286;-62
2024/03/12 18:00:35;;;;;;;41.33;28.13;;;10.50;98.20;;;;;;10413488;28;20219;-63
2024/03/12 18:05:40;;;;;;;42.10;27.67;;;10.50;98.30;;;;;;10384729;28;20303;-62
2024/03/12 18:10:48;;;;;;;38.05;26.98;;;10.50;98.30;;;;;;10375952;28;20277;-60
2024/03/12 18:15:54;;;;;;;44.22;27.90;;;10.50;98.20;;;;;;10375041;28;20293;-65
2024/03/12 18:21:02;;;;;;;46.33;29.10;;;10.40;98.20;;;;;;10372517;28;20257;-65
2024/03/12 18:26:06;;;;;;;40.05;26.65;;;10.40;98.20;;;;;;10370146;28;20228;-66
2024/03/12 18:31:11;;;;;;;39.90;26.70;;;10.40;98.20;;;;;;10370274;28;20352;-66
2024/03/12 18:36:15;;;;;;;39.43;26.07;;;10.40;98.20;;;;;;10365632;28;20287;-65
2024/03/12 18:41:18;;;;;;;40.37;26.73;;;10.40;98.30;;;;;;10359586;28;20208;-65
2024/03/12 18:46:23;;;;;;;48.50;29.07;;;10.40;98.30;;;;;;10360392;28;20232;-66
2024/03/12 18:51:28;;;;;;;41.85;26.80;;;10.40;98.20;;;;;;10359258;28;20393;-64
2024/03/12 18:56:32;;;;;;;35.83;25.40;;;10.30;98.20;;;;;;10360825;28;20228;-64
2024/03/12 19:01:40;;;;;;;39.78;27.80;;;10.30;98.20;;;;;;10362401;28;20200;-65
2024/03/12 19:06:44;;;;;;;42.90;28.10;;;10.30;98.10;;;;;;10359041;28;21493;-67
2024/03/12 19:11:49;;;;;;;44.23;28.37;;;10.20;98.00;;;;;;10359373;28;20223;-66
2024/03/12 19:16:54;;;;;;;37.20;25.35;;;10.20;98.00;;;;;;10357507;28;20269;-66
2024/03/12 19:22:00;;;;;;;40.20;26.17;;;10.20;98.20;;;;;;10358015;28;20238;-66
2024/03/12 19:27:04;;;;;;;39.20;26.00;;;10.10;97.80;;;;;;10357276;28;20254;-66
2024/03/12 19:32:15;;;;;;;41.72;26.83;;;10.10;97.70;;;;;;10358900;28;20232;-66
2024/03/12 19:37:24;;;;;;;39.27;26.80;;;10.00;97.70;;;;;;10358153;28;20258;-65
2024/03/12 19:42:29;;;;;;;39.47;25.93;;;9.90;98.30;;;;;;10358456;28;20235;-66
2024/03/12 19:47:35;;;;;;;37.17;24.20;;;9.90;98.40;;;;;;10358290;28;20306;-66
2024/03/12 19:52:39;;;;;;;36.73;25.50;;;9.80;98.20;;;;;;10356306;28;20701;-65
2024/03/12 19:57:42;;;;;;;40.13;24.70;;;9.80;98.40;;;;;;10356251;28;20909;-67
2024/03/12 20:02:48;;;;;;;36.72;24.50;;;9.70;98.30;;;;;;10360118;28;20285;-64
2024/03/12 20:07:53;;;;;;;37.10;24.07;;;9.70;98.40;;;;;;10353828;28;20232;-64
2024/03/12 20:12:58;;;;;;;36.13;23.87;;;9.60;98.30;;;;;;10361016;28;20589;-65
2024/03/12 20:18:04;;;;;;;32.77;21.57;;;9.60;98.20;;;;;;10356772;28;20236;-65
2024/03/12 20:23:08;;;;;;;35.03;22.30;;;9.50;98.30;;;;;;10355954;28;20204;-66
2024/03/12 20:28:12;;;;;;;35.37;22.07;;;9.50;98.20;;;;;;10334545;28;20230;-66
2024/03/12 20:33:18;;;;;;;33.03;22.93;;;9.50;98.20;;;;;;10356508;28;20232;-65
2024/03/12 20:38:22;;;;;;;31.57;20.80;;;9.50;98.30;;;;;;10357331;28;20265;-66
2024/03/12 20:43:27;;;;;;;29.13;20.17;;;9.40;98.30;;;;;;10355788;28;21562;-65
2024/03/12 20:48:32;;;;;;;29.20;19.70;;;9.40;98.40;;;;;;10354492;28;21479;-66
2024/03/12 20:53:36;;;;;;;28.90;19.17;;;9.50;98.40;;;;;;10355615;28;20289;-65
2024/03/12 20:58:40;;;;;;;28.47;19.63;;;9.50;98.40;;;;;;10354674;28;20969;-66
2024/03/12 21:03:45;;;;;;;27.07;18.93;;;9.60;98.40;;;;;;10352732;28;21593;-66
2024/03/12 21:08:49;;;;;;;24.73;17.57;;;9.60;98.60;;;;;;10353110;28;20212;-66
2024/03/12 21:13:52;;;;;;;27.43;18.60;;;9.60;98.50;;;;;;10353450;28;20232;-67
2024/03/12 21:18:58;;;;;;;23.90;16.30;;;9.60;98.40;;;;;;10353782;28;20298;-67
2024/03/12 21:24:02;;;;;;;22.90;15.20;;;9.60;98.40;;;;;;10355840;28;20250;-65
2024/03/12 21:29:06;;;;;;;18.75;13.52;;;9.60;98.30;;;;;;10362426;28;20687;-67
2024/03/12 21:34:11;;;;;;;20.60;13.73;;;9.60;98.40;;;;;;10362959;28;21543;-66
2024/03/12 21:39:18;;;;;;;20.30;13.80;;;9.60;98.30;;;;;;10360754;28;20208;-67
2024/03/12 21:44:24;;;;;;;22.37;13.50;;;9.60;98.50;;;;;;10358156;28;20242;-61
2024/03/12 21:49:30;;;;;;;19.53;12.47;;;9.60;98.40;;;;;;10359017;28;20273;-68
2024/03/12 21:54:34;;;;;;;19.57;13.20;;;9.60;98.50;;;;;;10356478;28;20232;-66
2024/03/12 21:59:39;;;;;;;16.60;11.83;;;9.60;98.60;;;;;;10357575;28;20616;-67
2024/03/12 22:04:45;;;;;;;19.67;13.20;;;9.60;98.80;;;;;;10358979;28;21002;-67
2024/03/12 22:09:49;;;;;;;21.92;12.85;;;9.60;98.70;;;;;;10359315;28;20208;-65
2024/03/12 22:14:52;;;;;;;32.55;18.38;;;9.60;98.50;;;;;;10358337;28;20851;-66
2024/03/12 22:19:58;;;;;;;19.48;13.52;;;9.60;98.50;;;;;;10358223;28;20204;-66
2024/03/12 22:25:02;;;;;;;19.92;12.68;;;9.60;98.60;;;;;;10359258;28;20790;-66
2024/03/12 22:30:07;;;;;;;17.67;12.20;;;9.60;98.80;;;;;;10359126;28;20580;-66
2024/03/12 22:35:12;;;;;;;17.40;12.27;;;9.70;98.90;;;;;;10360403;28;20236;-66
2024/03/12 22:40:18;;;;;;;17.40;12.13;;;9.70;99.00;;;;;;10363797;28;20322;-67
2024/03/12 22:45:22;;;;;;;16.13;11.73;;;9.70;99.30;;;;;;10358107;28;20220;-67
2024/03/12 22:50:28;;;;;;;12.80;9.70;;;9.70;99.50;;;;;;10358377;28;20234;-66
2024/03/12 22:55:32;;;;;;;12.20;9.52;;;9.80;99.40;;;;;;10356910;28;20293;-68
2024/03/12 23:00:44;;;;;;;13.82;10.07;;;9.80;98.80;;;;;;10356852;28;20204;-68
2024/03/12 23:05:50;;;;;;;14.75;9.77;;;9.80;99.10;;;;;;10356967;28;20777;-68
2024/03/12 23:10:55;;;;;;;14.30;10.50;;;9.80;99.30;;;;;;10357452;28;20259;-66
2024/03/12 23:15:59;;;;;;;13.00;9.43;;;9.80;98.60;;;;;;10356954;28;20363;-68
2024/03/12 23:21:05;;;;;;;14.77;9.82;;;9.90;98.80;;;;;;10357126;28;20736;-67
2024/03/12 23:26:10;;;;;;;11.63;9.20;;;9.90;98.80;;;;;;10359926;28;20247;-66
2024/03/12 23:31:14;;;;;;;13.20;9.05;;;9.90;98.90;;;;;;10355510;28;20219;-67
2024/03/12 23:36:21;;;;;;;14.25;9.38;;;9.90;98.90;;;;;;10356387;28;20309;-66
2024/03/12 23:41:25;;;;;;;12.30;8.63;;;9.90;98.80;;;;;;10356155;28;20707;-66
2024/03/12 23:46:29;;;;;;;12.25;8.77;;;9.90;98.80;;;;;;10353968;28;20253;-66
2024/03/12 23:51:34;;;;;;;11.70;9.10;;;9.90;99.10;;;;;;10353245;28;20630;-67
2024/03/12 23:56:38;;;;;;;12.38;8.93;;;10.00;98.40;;;;;;10354265;28;20293;-68
